sensor_id;sensor_type;location;lat;lon;timestamp;P1;durP1;ratioP1;P2;durP2;ratioP2
3465;SDS011;1747;48.884;9.160;2024-01-27T07:03:34;2.97;;;1.67;;
3465;SDS011;1747;48.884;9.160;2024-01-27T07:06:00;4.15;;;2.10;;
3465;SDS011;1747;48.884;9.160;2024-01-27T07:08:27;5.95;;;2.00;;
3465;SDS011;1747;48.884;9.160;2024-01-27T07:10:54;5.05;;;1.80;;
3465;SDS011;1747;48.884;9.160;2024-01-27T07:13:21;3.88;;;1.98;;
3465;SDS011;1747;48.884;9.160;2024-01-27T07:15:48;8.40;;;2.85;;
3465;SDS011;1747;48.884;9.160;2024-01-27T07:18:15;6.57;;;2.25;;
3465;SDS011;1747;48.884;9.160;2024-01-27T07:20:44;4.13;;;2.20;;
3465;SDS011;1747;48.884;9.160;2024-01-27T07:23:10;8.00;;;2.20;;
3465;SDS011;1747;48.884;9.160;2024-01-27T07:25:37;4.82;;;2.13;;
3465;SDS011;1747;48.884;9.160;2024-01-27T07:28:04;6.38;;;2.40;;
3465;SDS011;1747;48.884;9.160;2024-01-27T07:30:31;7.30;;;3.28;;
3465;SDS011;1747;48.884;9.160;2024-01-27T07:32:58;5.57;;;2.10;;
3465;SDS011;1747;48.884;9.160;2024-01-27T07:35:25;5.55;;;2.90;;
3465;SDS011;1747;48.884;9.160;2024-01-27T07:37:53;4.57;;;2.72;;
3465;SDS011;1747;48.884;9.160;2024-01-27T07:40:20;6.38;;;3.45;;
3465;SDS011;1747;48.884;9.160;2024-01-27T07:42:47;6.95;;;2.90;;
3465;SDS011;1747;48.884;9.160;2024-01-27T07:45:14;7.68;;;3.03;;
3465;SDS011;1747;48.884;9.160;2024-01-27T07:47:41;7.57;;;3.05;;
3465;SDS011;1747;48.884;9.160;2024-01-27T07:50:08;6.63;;;3.40;;
3465;SDS011;1747;48.884;9.160;2024-01-27T07:52:35;5.60;;;3.17;;
3465;SDS011;1747;48.884;9.160;2024-01-27T07:55:04;7.65;;;2.97;;
3465;SDS011;1747;48.884;9.160;2024-01-27T07:57:31;7.57;;;3.22;;
3465;SDS011;1747;48.884;9.160;2024-01-27T07:59:58;9.20;;;2.80;;
3465;SDS011;1747;48.884;9.160;2024-01-27T08:02:25;6.53;;;3.17;;
3465;SDS011;1747;48.884;9.160;2024-01-27T08:04:52;4.78;;;2.72;;
3465;SDS011;1747;48.884;9.160;2024-01-27T08:07:19;7.10;;;3.03;;
3465;SDS011;1747;48.884;9.160;2024-01-27T08:09:46;7.28;;;3.92;;
3465;SDS011;1747;48.884;9.160;2024-01-27T08:12:15;8.88;;;3.22;;
3465;SDS011;1747;48.884;9.160;2024-01-27T08:14:42;7.68;;;2.97;;
3465;SDS011;1747;48.884;9.160;2024-01-27T08:17:09;7.50;;;3.10;;
3465;SDS011;1747;48.884;9.160;2024-01-27T08:19:36;7.05;;;2.70;;
3465;SDS011;1747;48.884;9.160;2024-01-27T08:22:03;9.20;;;3.22;;
3465;SDS011;1747;48.884;9.160;2024-01-27T08:24:30;8.80;;;3.58;;
3465;SDS011;1747;48.884;9.160;2024-01-27T08:26:57;6.57;;;3.70;;
3465;SDS011;1747;48.884;9.160;2024-01-27T08:29:27;4.68;;;3.15;;
3465;SDS011;1747;48.884;9.160;2024-01-27T08:31:53;6.75;;;3.60;;
3465;SDS011;1747;48.884;9.160;2024-01-27T08:34:20;9.07;;;3.88;;
3465;SDS011;1747;48.884;9.160;2024-01-27T08:36:47;7.78;;;3.80;;
3465;SDS011;1747;48.884;9.160;2024-01-27T08:39:14;7.57;;;3.70;;
3465;SDS011;1747;48.884;9.160;2024-01-27T08:41:41;7.93;;;3.67;;
3465;SDS011;1747;48.884;9.160;2024-01-27T08:44:08;6.70;;;3.75;;
3465;SDS011;1747;48.884;9.160;2024-01-27T08:46:37;9.50;;;4.30;;
3465;SDS011;1747;48.884;9.160;2024-01-27T08:49:04;12.05;;;4.80;;
3465;SDS011;1747;48.884;9.160;2024-01-27T08:51:30;6.32;;;4.05;;
3465;SDS011;1747;48.884;9.160;2024-01-27T08:53:57;8.35;;;4.47;;
3465;SDS011;1747;48.884;9.160;2024-01-27T08:56:24;7.30;;;4.30;;
3465;SDS011;1747;48.884;9.160;2024-01-27T08:58:51;8.82;;;4.45;;
3465;SDS011;1747;48.884;9.160;2024-01-27T09:01:19;8.13;;;4.35;;
3465;SDS011;1747;48.884;9.160;2024-01-27T09:03:47;10.10;;;4.40;;
3465;SDS011;1747;48.884;9.160;2024-01-27T09:06:14;9.07;;;4.20;;
3465;SDS011;1747;48.884;9.160;2024-01-27T09:08:41;6.70;;;4.25;;
3465;SDS011;1747;48.884;9.160;2024-01-27T09:11:08;6.45;;;3.67;;
3465;SDS011;1747;48.884;9.160;2024-01-27T09:13:35;8.68;;;4.25;;
3465;SDS011;1747;48.884;9.160;2024-01-27T09:16:02;7.28;;;3.95;;
3465;SDS011;1747;48.884;9.160;2024-01-27T09:18:29;8.50;;;3.92;;
3465;SDS011;1747;48.884;9.160;2024-01-27T09:20:58;7.38;;;4.18;;
3465;SDS011;1747;48.884;9.160;2024-01-27T09:23:25;5.88;;;4.38;;
3465;SDS011;1747;48.884;9.160;2024-01-27T09:25:52;6.55;;;3.72;;
3465;SDS011;1747;48.884;9.160;2024-01-27T09:28:17;10.13;;;4.43;;
3465;SDS011;1747;48.884;9.160;2024-01-27T09:30:44;6.95;;;4.07;;
3465;SDS011;1747;48.884;9.160;2024-01-27T09:33:11;8.18;;;4.18;;
3465;SDS011;1747;48.884;9.160;2024-01-27T09:35:38;9.85;;;4.55;;
3465;SDS011;1747;48.884;9.160;2024-01-27T09:38:07;11.30;;;5.32;;
3465;SDS011;1747;48.884;9.160;2024-01-27T09:40:37;9.57;;;4.28;;
3465;SDS011;1747;48.884;9.160;2024-01-27T09:43:04;11.93;;;4.78;;
3465;SDS011;1747;48.884;9.160;2024-01-27T09:45:32;11.30;;;4.30;;
3465;SDS011;1747;48.884;9.160;2024-01-27T09:47:59;9.20;;;4.35;;
3465;SDS011;1747;48.884;9.160;2024-01-27T09:50:27;9.07;;;4.28;;
3465;SDS011;1747;48.884;9.160;2024-01-27T09:52:54;7.78;;;4.22;;
3465;SDS011;1747;48.884;9.160;2024-01-27T09:55:22;8.68;;;4.57;;
3465;SDS011;1747;48.884;9.160;2024-01-27T09:57:50;9.93;;;4.38;;
3465;SDS011;1747;48.884;9.160;2024-01-27T10:00:18;9.68;;;4.32;;
3465;SDS011;1747;48.884;9.160;2024-01-27T10:02:46;8.88;;;4.57;;
3465;SDS011;1747;48.884;9.160;2024-01-27T10:05:14;11.23;;;4.35;;
3465;SDS011;1747;48.884;9.160;2024-01-27T10:07:42;9.38;;;4.35;;
3465;SDS011;1747;48.884;9.160;2024-01-27T10:10:10;7.97;;;4.35;;
3465;SDS011;1747;48.884;9.160;2024-01-27T10:12:39;7.97;;;4.30;;
3465;SDS011;1747;48.884;9.160;2024-01-27T10:15:17;12.65;;;4.55;;
3465;SDS011;1747;48.884;9.160;2024-01-27T10:17:45;13.77;;;4.45;;
3465;SDS011;1747;48.884;9.160;2024-01-27T10:20:13;8.55;;;4.47;;
3465;SDS011;1747;48.884;9.160;2024-01-27T10:22:40;10.68;;;4.63;;
3465;SDS011;1747;48.884;9.160;2024-01-27T10:25:11;9.30;;;4.13;;
3465;SDS011;1747;48.884;9.160;2024-01-27T10:27:56;11.73;;;4.47;;
3465;SDS011;1747;48.884;9.160;2024-01-27T10:30:24;8.38;;;4.50;;
3465;SDS011;1747;48.884;9.160;2024-01-27T10:32:54;11.25;;;5.18;;
3465;SDS011;1747;48.884;9.160;2024-01-27T10:35:22;6.93;;;4.07;;
3465;SDS011;1747;48.884;9.160;2024-01-27T10:37:51;11.63;;;4.80;;
3465;SDS011;1747;48.884;9.160;2024-01-27T10:40:19;11.35;;;3.90;;
3465;SDS011;1747;48.884;9.160;2024-01-27T10:42:51;7.68;;;3.65;;
3465;SDS011;1747;48.884;9.160;2024-01-27T10:45:30;7.90;;;3.72;;
3465;SDS011;1747;48.884;9.160;2024-01-27T10:48:02;9.10;;;3.75;;
3465;SDS011;1747;48.884;9.160;2024-01-27T10:50:30;11.38;;;4.13;;
3465;SDS011;1747;48.884;9.160;2024-01-27T10:53:00;10.50;;;3.60;;
3465;SDS011;1747;48.884;9.160;2024-01-27T10:55:30;9.05;;;3.15;;
3465;SDS011;1747;48.884;9.160;2024-01-27T10:57:59;11.18;;;3.20;;
3465;SDS011;1747;48.884;9.160;2024-01-27T11:00:29;9.13;;;3.25;;
3465;SDS011;1747;48.884;9.160;2024-01-27T11:02:57;10.65;;;3.35;;
3465;SDS011;1747;48.884;9.160;2024-01-27T11:05:27;9.13;;;2.95;;
3465;SDS011;1747;48.884;9.160;2024-01-27T11:07:55;10.32;;;3.75;;
3465;SDS011;1747;48.884;9.160;2024-01-27T11:10:23;5.75;;;2.97;;
3465;SDS011;1747;48.884;9.160;2024-01-27T11:12:54;9.50;;;3.33;;
3465;SDS011;1747;48.884;9.160;2024-01-27T11:15:25;7.28;;;3.20;;
3465;SDS011;1747;48.884;9.160;2024-01-27T11:17:56;13.18;;;3.35;;
3465;SDS011;1747;48.884;9.160;2024-01-27T11:20:33;8.43;;;3.35;;
3465;SDS011;1747;48.884;9.160;2024-01-27T11:23:08;8.63;;;3.50;;
3465;SDS011;1747;48.884;9.160;2024-01-27T11:25:36;5.80;;;3.28;;
3465;SDS011;1747;48.884;9.160;2024-01-27T11:28:10;11.63;;;3.88;;
3465;SDS011;1747;48.884;9.160;2024-01-27T11:30:39;8.38;;;3.08;;
3465;SDS011;1747;48.884;9.160;2024-01-27T11:33:10;5.68;;;3.30;;
3465;SDS011;1747;48.884;9.160;2024-01-27T11:35:37;9.65;;;3.33;;
3465;SDS011;1747;48.884;9.160;2024-01-27T11:38:04;12.05;;;3.15;;
3465;SDS011;1747;48.884;9.160;2024-01-27T11:40:31;9.52;;;3.60;;
3465;SDS011;1747;48.884;9.160;2024-01-27T11:42:59;10.05;;;3.20;;
3465;SDS011;1747;48.884;9.160;2024-01-27T11:45:27;8.55;;;3.47;;
3465;SDS011;1747;48.884;9.160;2024-01-27T11:47:56;7.95;;;3.60;;
3465;SDS011;1747;48.884;9.160;2024-01-27T11:50:23;8.25;;;3.58;;
3465;SDS011;1747;48.884;9.160;2024-01-27T11:52:50;10.75;;;3.35;;
3465;SDS011;1747;48.884;9.160;2024-01-27T11:55:16;7.57;;;3.67;;
3465;SDS011;1747;48.884;9.160;2024-01-27T11:57:44;9.05;;;3.25;;
3465;SDS011;1747;48.884;9.160;2024-01-27T12:00:11;9.27;;;3.45;;
3465;SDS011;1747;48.884;9.160;2024-01-27T12:02:39;8.85;;;3.50;;
3465;SDS011;1747;48.884;9.160;2024-01-27T12:05:07;5.97;;;3.55;;
3465;SDS011;1747;48.884;9.160;2024-01-27T12:07:35;10.93;;;4.25;;
3465;SDS011;1747;48.884;9.160;2024-01-27T12:10:02;8.13;;;3.63;;
3465;SDS011;1747;48.884;9.160;2024-01-27T12:12:30;8.82;;;3.72;;
3465;SDS011;1747;48.884;9.160;2024-01-27T12:14:57;9.18;;;3.60;;
3465;SDS011;1747;48.884;9.160;2024-01-27T12:17:25;13.52;;;4.07;;
3465;SDS011;1747;48.884;9.160;2024-01-27T12:19:52;11.88;;;4.03;;
3465;SDS011;1747;48.884;9.160;2024-01-27T12:22:24;10.75;;;3.75;;
3465;SDS011;1747;48.884;9.160;2024-01-27T12:24:52;10.25;;;4.10;;
3465;SDS011;1747;48.884;9.160;2024-01-27T12:27:19;12.38;;;4.32;;
3465;SDS011;1747;48.884;9.160;2024-01-27T12:29:46;9.85;;;4.00;;
3465;SDS011;1747;48.884;9.160;2024-01-27T12:32:14;10.90;;;3.90;;
3465;SDS011;1747;48.884;9.160;2024-01-27T12:34:41;7.43;;;3.38;;
3465;SDS011;1747;48.884;9.160;2024-01-27T12:37:08;6.45;;;3.45;;
3465;SDS011;1747;48.884;9.160;2024-01-27T12:39:39;7.55;;;3.60;;
3465;SDS011;1747;48.884;9.160;2024-01-27T12:42:08;10.75;;;3.53;;
3465;SDS011;1747;48.884;9.160;2024-01-27T12:44:34;7.22;;;3.80;;
3465;SDS011;1747;48.884;9.160;2024-01-27T12:47:01;6.78;;;3.65;;
3465;SDS011;1747;48.884;9.160;2024-01-27T12:49:29;7.78;;;4.20;;
3465;SDS011;1747;48.884;9.160;2024-01-27T12:51:56;16.13;;;4.30;;
3465;SDS011;1747;48.884;9.160;2024-01-27T12:54:23;7.32;;;3.20;;
3465;SDS011;1747;48.884;9.160;2024-01-27T12:56:51;9.30;;;3.28;;
3465;SDS011;1747;48.884;9.160;2024-01-27T12:59:18;10.48;;;3.38;;
3465;SDS011;1747;48.884;9.160;2024-01-27T13:01:45;10.05;;;3.65;;
3465;SDS011;1747;48.884;9.160;2024-01-27T13:04:12;12.07;;;3.30;;
3465;SDS011;1747;48.884;9.160;2024-01-27T13:06:39;7.35;;;3.05;;
3465;SDS011;1747;48.884;9.160;2024-01-27T13:09:06;8.13;;;4.15;;
3465;SDS011;1747;48.884;9.160;2024-01-27T13:11:36;11.77;;;3.75;;
3465;SDS011;1747;48.884;9.160;2024-01-27T13:29:35;10.18;;;3.72;;
3465;SDS011;1747;48.884;9.160;2024-01-27T13:32:02;8.18;;;3.92;;
3465;SDS011;1747;48.884;9.160;2024-01-27T13:34:32;7.35;;;3.13;;
3465;SDS011;1747;48.884;9.160;2024-01-27T13:36:59;8.35;;;3.88;;
3465;SDS011;1747;48.884;9.160;2024-01-27T13:39:28;9.25;;;3.42;;
3465;SDS011;1747;48.884;9.160;2024-01-27T13:41:55;6.50;;;3.40;;
3465;SDS011;1747;48.884;9.160;2024-01-27T13:44:22;11.05;;;3.83;;
3465;SDS011;1747;48.884;9.160;2024-01-27T13:46:50;9.10;;;3.67;;
3465;SDS011;1747;48.884;9.160;2024-01-27T13:49:18;4.38;;;3.10;;
3465;SDS011;1747;48.884;9.160;2024-01-27T13:51:45;7.63;;;3.72;;
3465;SDS011;1747;48.884;9.160;2024-01-27T13:54:12;5.40;;;3.22;;
3465;SDS011;1747;48.884;9.160;2024-01-27T13:56:39;7.43;;;2.83;;
3465;SDS011;1747;48.884;9.160;2024-01-27T13:59:06;9.43;;;4.60;;
3465;SDS011;1747;48.884;9.160;2024-01-27T14:01:34;8.60;;;3.47;;
3465;SDS011;1747;48.884;9.160;2024-01-27T14:04:02;8.45;;;2.47;;
3465;SDS011;1747;48.884;9.160;2024-01-27T14:06:30;6.03;;;2.90;;
3465;SDS011;1747;48.884;9.160;2024-01-27T14:08:57;7.22;;;2.53;;
3465;SDS011;1747;48.884;9.160;2024-01-27T14:11:24;9.55;;;2.85;;
3465;SDS011;1747;48.884;9.160;2024-01-27T14:13:51;6.78;;;2.45;;
3465;SDS011;1747;48.884;9.160;2024-01-27T14:16:18;7.00;;;2.08;;
3465;SDS011;1747;48.884;9.160;2024-01-27T14:18:45;6.97;;;2.08;;
3465;SDS011;1747;48.884;9.160;2024-01-27T14:21:13;8.10;;;3.38;;
3465;SDS011;1747;48.884;9.160;2024-01-27T14:23:40;7.75;;;3.08;;
3465;SDS011;1747;48.884;9.160;2024-01-27T14:26:07;5.72;;;2.40;;
3465;SDS011;1747;48.884;9.160;2024-01-27T14:28:39;5.07;;;2.58;;
3465;SDS011;1747;48.884;9.160;2024-01-27T14:31:06;4.30;;;2.08;;
3465;SDS011;1747;48.884;9.160;2024-01-27T14:33:33;7.63;;;2.45;;
3465;SDS011;1747;48.884;9.160;2024-01-27T14:36:00;5.80;;;2.55;;
3465;SDS011;1747;48.884;9.160;2024-01-27T14:38:29;7.72;;;2.15;;
3465;SDS011;1747;48.884;9.160;2024-01-27T14:40:56;7.85;;;2.50;;
3465;SDS011;1747;48.884;9.160;2024-01-27T14:43:23;4.65;;;2.45;;
3465;SDS011;1747;48.884;9.160;2024-01-27T14:45:51;4.82;;;2.15;;
3465;SDS011;1747;48.884;9.160;2024-01-27T14:48:20;7.40;;;2.60;;
3465;SDS011;1747;48.884;9.160;2024-01-27T14:50:47;7.93;;;2.38;;
3465;SDS011;1747;48.884;9.160;2024-01-27T14:53:17;6.90;;;2.60;;
3465;SDS011;1747;48.884;9.160;2024-01-27T14:55:46;5.63;;;2.45;;
3465;SDS011;1747;48.884;9.160;2024-01-27T14:58:13;7.82;;;2.40;;
3465;SDS011;1747;48.884;9.160;2024-01-27T15:00:39;5.97;;;2.72;;
3465;SDS011;1747;48.884;9.160;2024-01-27T15:03:06;6.85;;;2.47;;
3465;SDS011;1747;48.884;9.160;2024-01-27T15:05:32;5.80;;;2.70;;
3465;SDS011;1747;48.884;9.160;2024-01-27T15:08:01;7.70;;;2.83;;
3465;SDS011;1747;48.884;9.160;2024-01-27T15:10:30;7.65;;;2.65;;
3465;SDS011;1747;48.884;9.160;2024-01-27T15:12:59;11.23;;;3.03;;
3465;SDS011;1747;48.884;9.160;2024-01-27T15:15:26;7.15;;;3.13;;
3465;SDS011;1747;48.884;9.160;2024-01-27T15:17:53;9.27;;;2.95;;
3465;SDS011;1747;48.884;9.160;2024-01-27T15:20:27;6.00;;;2.50;;
3465;SDS011;1747;48.884;9.160;2024-01-27T15:22:54;6.95;;;2.55;;
3465;SDS011;1747;48.884;9.160;2024-01-27T15:25:21;6.60;;;2.72;;
3465;SDS011;1747;48.884;9.160;2024-01-27T15:27:51;3.60;;;2.20;;
3465;SDS011;1747;48.884;9.160;2024-01-27T15:30:20;10.18;;;3.05;;
3465;SDS011;1747;48.884;9.160;2024-01-27T15:32:47;6.18;;;2.30;;
3465;SDS011;1747;48.884;9.160;2024-01-27T15:35:18;7.13;;;2.20;;
3465;SDS011;1747;48.884;9.160;2024-01-27T15:38:02;8.18;;;2.30;;
3465;SDS011;1747;48.884;9.160;2024-01-27T15:40:29;4.55;;;2.35;;
3465;SDS011;1747;48.884;9.160;2024-01-27T15:42:57;4.88;;;2.03;;
3465;SDS011;1747;48.884;9.160;2024-01-27T15:45:25;7.45;;;2.70;;
3465;SDS011;1747;48.884;9.160;2024-01-27T15:47:52;7.93;;;2.75;;
3465;SDS011;1747;48.884;9.160;2024-01-27T15:50:21;6.55;;;2.53;;
3465;SDS011;1747;48.884;9.160;2024-01-27T15:52:51;5.28;;;2.58;;
3465;SDS011;1747;48.884;9.160;2024-01-27T15:55:18;10.20;;;2.92;;
3465;SDS011;1747;48.884;9.160;2024-01-27T15:57:45;4.82;;;2.47;;
3465;SDS011;1747;48.884;9.160;2024-01-27T16:00:12;10.05;;;3.08;;
3465;SDS011;1747;48.884;9.160;2024-01-27T16:02:41;8.23;;;3.53;;
3465;SDS011;1747;48.884;9.160;2024-01-27T16:05:08;17.67;;;6.45;;
3465;SDS011;1747;48.884;9.160;2024-01-27T16:07:35;14.63;;;4.97;;
3465;SDS011;1747;48.884;9.160;2024-01-27T16:10:01;8.82;;;4.03;;
3465;SDS011;1747;48.884;9.160;2024-01-27T16:12:29;7.70;;;3.97;;
3465;SDS011;1747;48.884;9.160;2024-01-27T16:14:56;8.25;;;3.35;;
3465;SDS011;1747;48.884;9.160;2024-01-27T16:17:23;6.75;;;3.40;;
3465;SDS011;1747;48.884;9.160;2024-01-27T16:19:51;7.90;;;3.25;;
3465;SDS011;1747;48.884;9.160;2024-01-27T16:22:19;8.57;;;3.30;;
3465;SDS011;1747;48.884;9.160;2024-01-27T16:24:48;7.47;;;2.95;;
3465;SDS011;1747;48.884;9.160;2024-01-27T16:27:15;4.70;;;2.70;;
3465;SDS011;1747;48.884;9.160;2024-01-27T16:29:42;10.52;;;2.88;;
3465;SDS011;1747;48.884;9.160;2024-01-27T16:32:09;6.72;;;2.50;;
3465;SDS011;1747;48.884;9.160;2024-01-27T16:34:36;6.47;;;2.80;;
3465;SDS011;1747;48.884;9.160;2024-01-27T16:37:04;4.53;;;2.60;;
3465;SDS011;1747;48.884;9.160;2024-01-27T16:39:31;7.13;;;3.25;;
3465;SDS011;1747;48.884;9.160;2024-01-27T16:41:58;8.95;;;3.33;;
3465;SDS011;1747;48.884;9.160;2024-01-27T16:44:25;4.95;;;3.05;;
3465;SDS011;1747;48.884;9.160;2024-01-27T16:46:51;10.32;;;3.25;;
3465;SDS011;1747;48.884;9.160;2024-01-27T16:49:18;6.72;;;2.85;;
3465;SDS011;1747;48.884;9.160;2024-01-27T16:51:45;9.52;;;3.10;;
3465;SDS011;1747;48.884;9.160;2024-01-27T16:54:15;4.97;;;2.78;;
3465;SDS011;1747;48.884;9.160;2024-01-27T16:56:43;7.63;;;2.72;;
3465;SDS011;1747;48.884;9.160;2024-01-27T16:59:10;7.88;;;3.15;;
3465;SDS011;1747;48.884;9.160;2024-01-27T17:01:36;7.75;;;3.28;;
3465;SDS011;1747;48.884;9.160;2024-01-27T17:04:03;8.40;;;3.50;;
3465;SDS011;1747;48.884;9.160;2024-01-27T17:06:32;6.22;;;3.65;;
3465;SDS011;1747;48.884;9.160;2024-01-27T17:08:59;10.13;;;3.95;;
3465;SDS011;1747;48.884;9.160;2024-01-27T17:11:28;8.35;;;3.40;;
3465;SDS011;1747;48.884;9.160;2024-01-27T17:13:55;6.72;;;3.42;;
3465;SDS011;1747;48.884;9.160;2024-01-27T17:16:24;8.15;;;3.88;;
3465;SDS011;1747;48.884;9.160;2024-01-27T17:18:51;7.70;;;3.67;;
3465;SDS011;1747;48.884;9.160;2024-01-27T17:21:18;6.03;;;3.28;;
3465;SDS011;1747;48.884;9.160;2024-01-27T17:23:45;8.27;;;3.63;;
3465;SDS011;1747;48.884;9.160;2024-01-27T17:26:12;8.23;;;4.03;;
3465;SDS011;1747;48.884;9.160;2024-01-27T17:28:40;6.95;;;4.22;;
3465;SDS011;1747;48.884;9.160;2024-01-27T17:31:07;10.48;;;4.32;;
3465;SDS011;1747;48.884;9.160;2024-01-27T17:33:34;8.95;;;4.03;;
3465;SDS011;1747;48.884;9.160;2024-01-27T17:36:03;9.35;;;4.65;;
3465;SDS011;1747;48.884;9.160;2024-01-27T17:38:31;9.40;;;5.95;;
3465;SDS011;1747;48.884;9.160;2024-01-27T17:40:58;16.52;;;8.60;;
3465;SDS011;1747;48.884;9.160;2024-01-27T17:43:25;10.25;;;5.47;;
3465;SDS011;1747;48.884;9.160;2024-01-27T17:45:53;11.38;;;4.72;;
3465;SDS011;1747;48.884;9.160;2024-01-27T17:48:20;11.02;;;4.85;;
3465;SDS011;1747;48.884;9.160;2024-01-27T17:50:46;14.25;;;4.60;;
3465;SDS011;1747;48.884;9.160;2024-01-27T17:53:13;8.50;;;4.38;;
3465;SDS011;1747;48.884;9.160;2024-01-27T17:55:42;11.90;;;5.22;;
3465;SDS011;1747;48.884;9.160;2024-01-27T17:58:09;11.80;;;5.35;;
3465;SDS011;1747;48.884;9.160;2024-01-27T18:00:37;12.80;;;5.72;;
3465;SDS011;1747;48.884;9.160;2024-01-27T18:03:06;11.50;;;5.53;;
3465;SDS011;1747;48.884;9.160;2024-01-27T18:05:32;10.88;;;6.10;;
3465;SDS011;1747;48.884;9.160;2024-01-27T18:07:59;9.63;;;4.68;;
3465;SDS011;1747;48.884;9.160;2024-01-27T18:10:26;10.48;;;5.43;;
3465;SDS011;1747;48.884;9.160;2024-01-27T18:12:53;10.55;;;4.85;;
3465;SDS011;1747;48.884;9.160;2024-01-27T18:15:20;12.43;;;4.88;;
3465;SDS011;1747;48.884;9.160;2024-01-27T18:17:47;11.85;;;4.53;;
3465;SDS011;1747;48.884;9.160;2024-01-27T18:20:16;11.90;;;5.63;;
3465;SDS011;1747;48.884;9.160;2024-01-27T18:22:43;9.25;;;5.22;;
3465;SDS011;1747;48.884;9.160;2024-01-27T18:25:10;10.05;;;5.30;;
3465;SDS011;1747;48.884;9.160;2024-01-27T18:27:37;12.85;;;5.43;;
3465;SDS011;1747;48.884;9.160;2024-01-27T18:30:07;12.13;;;5.13;;
3465;SDS011;1747;48.884;9.160;2024-01-27T18:32:35;12.57;;;5.53;;
3465;SDS011;1747;48.884;9.160;2024-01-27T18:35:02;14.98;;;5.60;;
3465;SDS011;1747;48.884;9.160;2024-01-27T18:37:31;10.95;;;4.55;;
3465;SDS011;1747;48.884;9.160;2024-01-27T18:39:58;8.70;;;4.57;;
3465;SDS011;1747;48.884;9.160;2024-01-27T18:42:26;8.50;;;4.80;;
3465;SDS011;1747;48.884;9.160;2024-01-27T18:44:53;7.95;;;4.28;;
3465;SDS011;1747;48.884;9.160;2024-01-27T18:47:20;8.73;;;4.75;;
3465;SDS011;1747;48.884;9.160;2024-01-27T18:49:49;7.97;;;4.78;;
3465;SDS011;1747;48.884;9.160;2024-01-27T18:52:16;10.38;;;4.25;;
3465;SDS011;1747;48.884;9.160;2024-01-27T18:54:44;8.95;;;4.97;;
3465;SDS011;1747;48.884;9.160;2024-01-27T18:57:11;9.50;;;4.38;;
3465;SDS011;1747;48.884;9.160;2024-01-27T18:59:38;8.13;;;4.97;;
3465;SDS011;1747;48.884;9.160;2024-01-27T19:02:06;8.63;;;4.28;;
3465;SDS011;1747;48.884;9.160;2024-01-27T19:04:35;13.57;;;4.90;;
3465;SDS011;1747;48.884;9.160;2024-01-27T19:07:02;8.27;;;4.80;;
3465;SDS011;1747;48.884;9.160;2024-01-27T19:09:29;9.93;;;4.65;;
3465;SDS011;1747;48.884;9.160;2024-01-27T19:11:57;13.68;;;5.45;;
3465;SDS011;1747;48.884;9.160;2024-01-27T19:14:24;11.35;;;5.10;;
3465;SDS011;1747;48.884;9.160;2024-01-27T19:16:51;8.20;;;4.95;;
3465;SDS011;1747;48.884;9.160;2024-01-27T19:19:19;9.73;;;5.15;;
3465;SDS011;1747;48.884;9.160;2024-01-27T19:21:47;12.10;;;5.13;;
3465;SDS011;1747;48.884;9.160;2024-01-27T19:24:13;11.13;;;5.40;;
3465;SDS011;1747;48.884;9.160;2024-01-27T19:26:40;11.80;;;5.53;;
3465;SDS011;1747;48.884;9.160;2024-01-27T19:29:10;11.27;;;5.50;;
3465;SDS011;1747;48.884;9.160;2024-01-27T19:31:37;13.80;;;5.75;;
3465;SDS011;1747;48.884;9.160;2024-01-27T19:34:03;9.68;;;4.85;;
3465;SDS011;1747;48.884;9.160;2024-01-27T19:36:30;10.57;;;5.28;;
3465;SDS011;1747;48.884;9.160;2024-01-27T19:38:57;11.98;;;5.30;;
3465;SDS011;1747;48.884;9.160;2024-01-27T19:41:24;10.63;;;5.50;;
3465;SDS011;1747;48.884;9.160;2024-01-27T19:43:51;11.63;;;5.65;;
3465;SDS011;1747;48.884;9.160;2024-01-27T19:46:19;15.40;;;5.95;;
3465;SDS011;1747;48.884;9.160;2024-01-27T19:48:46;12.65;;;5.32;;
3465;SDS011;1747;48.884;9.160;2024-01-27T19:51:13;14.63;;;5.60;;
3465;SDS011;1747;48.884;9.160;2024-01-27T19:53:39;11.85;;;5.28;;
3465;SDS011;1747;48.884;9.160;2024-01-27T19:56:09;9.43;;;4.93;;
3465;SDS011;1747;48.884;9.160;2024-01-27T19:58:36;8.27;;;5.03;;
3465;SDS011;1747;48.884;9.160;2024-01-27T20:01:03;8.80;;;4.90;;
3465;SDS011;1747;48.884;9.160;2024-01-27T20:03:31;10.02;;;5.13;;
3465;SDS011;1747;48.884;9.160;2024-01-27T20:05:58;12.10;;;5.60;;
3465;SDS011;1747;48.884;9.160;2024-01-27T20:08:25;13.27;;;4.53;;
3465;SDS011;1747;48.884;9.160;2024-01-27T20:10:52;10.70;;;5.20;;
3465;SDS011;1747;48.884;9.160;2024-01-27T20:13:19;9.52;;;4.95;;
3465;SDS011;1747;48.884;9.160;2024-01-27T20:15:45;13.77;;;5.18;;
3465;SDS011;1747;48.884;9.160;2024-01-27T20:18:12;14.55;;;5.20;;
3465;SDS011;1747;48.884;9.160;2024-01-27T20:20:40;14.98;;;5.47;;
3465;SDS011;1747;48.884;9.160;2024-01-27T20:23:07;11.40;;;4.80;;
3465;SDS011;1747;48.884;9.160;2024-01-27T20:25:34;9.13;;;4.82;;
3465;SDS011;1747;48.884;9.160;2024-01-27T20:28:01;9.15;;;5.35;;
3465;SDS011;1747;48.884;9.160;2024-01-27T20:30:28;10.23;;;4.93;;
3465;SDS011;1747;48.884;9.160;2024-01-27T20:32:55;10.15;;;4.70;;
3465;SDS011;1747;48.884;9.160;2024-01-27T20:35:23;12.40;;;5.30;;
3465;SDS011;1747;48.884;9.160;2024-01-27T20:37:52;13.05;;;5.47;;
3465;SDS011;1747;48.884;9.160;2024-01-27T20:40:19;9.38;;;4.95;;
3465;SDS011;1747;48.884;9.160;2024-01-27T20:42:46;13.98;;;5.65;;
3465;SDS011;1747;48.884;9.160;2024-01-27T20:45:13;10.57;;;5.10;;
3465;SDS011;1747;48.884;9.160;2024-01-27T20:47:40;12.13;;;5.25;;
3465;SDS011;1747;48.884;9.160;2024-01-27T20:50:07;10.15;;;5.70;;
3465;SDS011;1747;48.884;9.160;2024-01-27T20:52:34;8.43;;;5.25;;
3465;SDS011;1747;48.884;9.160;2024-01-27T20:55:03;10.05;;;4.97;;
3465;SDS011;1747;48.884;9.160;2024-01-27T20:57:30;13.35;;;5.80;;
3465;SDS011;1747;48.884;9.160;2024-01-27T20:59:57;15.63;;;5.60;;
3465;SDS011;1747;48.884;9.160;2024-01-27T21:02:24;13.57;;;5.35;;
3465;SDS011;1747;48.884;9.160;2024-01-27T21:04:52;10.00;;;4.82;;
3465;SDS011;1747;48.884;9.160;2024-01-27T21:07:19;6.20;;;4.30;;
3465;SDS011;1747;48.884;9.160;2024-01-27T21:09:46;12.15;;;4.63;;
3465;SDS011;1747;48.884;9.160;2024-01-27T21:12:14;12.43;;;4.70;;
3465;SDS011;1747;48.884;9.160;2024-01-27T21:14:41;8.98;;;4.32;;
3465;SDS011;1747;48.884;9.160;2024-01-27T21:17:07;9.88;;;4.72;;
3465;SDS011;1747;48.884;9.160;2024-01-27T21:19:34;8.55;;;4.60;;
3465;SDS011;1747;48.884;9.160;2024-01-27T21:22:05;11.00;;;4.68;;
3465;SDS011;1747;48.884;9.160;2024-01-27T21:24:32;10.88;;;5.43;;
3465;SDS011;1747;48.884;9.160;2024-01-27T21:26:59;8.88;;;4.85;;
3465;SDS011;1747;48.884;9.160;2024-01-27T21:29:27;11.32;;;5.07;;
3465;SDS011;1747;48.884;9.160;2024-01-27T21:31:54;9.98;;;4.75;;
3465;SDS011;1747;48.884;9.160;2024-01-27T21:34:20;15.13;;;5.03;;
3465;SDS011;1747;48.884;9.160;2024-01-27T21:36:47;8.20;;;5.00;;
3465;SDS011;1747;48.884;9.160;2024-01-27T21:39:14;11.00;;;5.20;;
3465;SDS011;1747;48.884;9.160;2024-01-27T21:41:41;11.88;;;5.05;;
3465;SDS011;1747;48.884;9.160;2024-01-27T21:44:08;8.65;;;5.20;;
3465;SDS011;1747;48.884;9.160;2024-01-27T21:46:36;9.75;;;4.82;;
3465;SDS011;1747;48.884;9.160;2024-01-27T21:49:03;9.27;;;4.53;;
3465;SDS011;1747;48.884;9.160;2024-01-27T21:51:32;9.82;;;4.85;;
3465;SDS011;1747;48.884;9.160;2024-01-27T21:53:58;8.68;;;4.60;;
3465;SDS011;1747;48.884;9.160;2024-01-27T21:56:25;10.43;;;4.95;;
3465;SDS011;1747;48.884;9.160;2024-01-27T21:58:52;7.68;;;5.20;;
3465;SDS011;1747;48.884;9.160;2024-01-27T22:01:20;10.57;;;5.07;;
3465;SDS011;1747;48.884;9.160;2024-01-27T22:03:48;8.45;;;4.45;;
3465;SDS011;1747;48.884;9.160;2024-01-27T22:06:15;7.50;;;4.70;;
3465;SDS011;1747;48.884;9.160;2024-01-27T22:08:42;7.65;;;4.65;;
3465;SDS011;1747;48.884;9.160;2024-01-27T22:11:10;18.23;;;5.15;;
3465;SDS011;1747;48.884;9.160;2024-01-27T22:13:37;10.07;;;4.70;;
3465;SDS011;1747;48.884;9.160;2024-01-27T22:16:04;7.50;;;4.45;;
3465;SDS011;1747;48.884;9.160;2024-01-27T22:18:32;18.20;;;5.53;;
3465;SDS011;1747;48.884;9.160;2024-01-27T22:21:01;16.25;;;5.63;;
3465;SDS011;1747;48.884;9.160;2024-01-27T22:23:28;11.50;;;5.07;;
3465;SDS011;1747;48.884;9.160;2024-01-27T22:25:54;10.25;;;4.85;;
3465;SDS011;1747;48.884;9.160;2024-01-27T22:28:22;9.07;;;4.68;;
3465;SDS011;1747;48.884;9.160;2024-01-27T22:30:49;8.77;;;4.88;;